sensor_id;sensor_type;location;lat;lon;timestamp;temperature;humidity
2935;DHT22;2462;51.456;7.248;2023-04-29T00:00:21;18.30;97.70
2935;DHT22;2462;51.456;7.248;2023-04-29T00:02:47;18.30;97.80
2935;DHT22;2462;51.456;7.248;2023-04-29T00:05:12;18.30;97.70
2935;DHT22;2462;51.456;7.248;2023-04-29T00:07:38;18.30;97.80
2935;DHT22;2462;51.456;7.248;2023-04-29T00:10:04;18.30;97.80
2935;DHT22;2462;51.456;7.248;2023-04-29T00:12:30;18.30;97.70
2935;DHT22;2462;51.456;7.248;2023-04-29T00:14:56;18.30;97.80
2935;DHT22;2462;51.456;7.248;2023-04-29T00:17:22;18.30;97.80
2935;DHT22;2462;51.456;7.248;2023-04-29T00:19:47;18.20;97.80
2935;DHT22;2462;51.456;7.248;2023-04-29T00:22:15;18.20;97.80
2935;DHT22;2462;51.456;7.248;2023-04-29T00:24:40;18.20;97.80
2935;DHT22;2462;51.456;7.248;2023-04-29T00:27:06;18.20;97.90
2935;DHT22;2462;51.456;7.248;2023-04-29T00:29:31;18.20;97.80
2935;DHT22;2462;51.456;7.248;2023-04-29T00:31:57;18.20;97.90
2935;DHT22;2462;51.456;7.248;2023-04-29T00:34:23;18.20;97.90
2935;DHT22;2462;51.456;7.248;2023-04-29T00:36:48;18.20;97.80
2935;DHT22;2462;51.456;7.248;2023-04-29T00:39:14;18.20;97.90
2935;DHT22;2462;51.456;7.248;2023-04-29T00:41:40;18.10;97.90
2935;DHT22;2462;51.456;7.248;2023-04-29T00:44:06;18.10;97.90
2935;DHT22;2462;51.456;7.248;2023-04-29T00:46:32;18.10;97.90
2935;DHT22;2462;51.456;7.248;2023-04-29T00:48:58;18.10;97.90
2935;DHT22;2462;51.456;7.248;2023-04-29T00:51:25;18.10;97.90
2935;DHT22;2462;51.456;7.248;2023-04-29T00:53:51;18.10;98.00
2935;DHT22;2462;51.456;7.248;2023-04-29T00:56:17;18.10;98.30
2935;DHT22;2462;51.456;7.248;2023-04-29T00:58:45;18.10;98.00
2935;DHT22;2462;51.456;7.248;2023-04-29T01:01:15;18.00;98.00
2935;DHT22;2462;51.456;7.248;2023-04-29T01:03:41;18.00;98.00
2935;DHT22;2462;51.456;7.248;2023-04-29T01:09:16;18.00;98.00
2935;DHT22;2462;51.456;7.248;2023-04-29T01:14:27;18.00;98.00
2935;DHT22;2462;51.456;7.248;2023-04-29T01:16:58;18.00;98.00
2935;DHT22;2462;51.456;7.248;2023-04-29T01:21:52;18.00;98.10
2935;DHT22;2462;51.456;7.248;2023-04-29T01:24:18;17.90;98.00
2935;DHT22;2462;51.456;7.248;2023-04-29T01:26:51;17.90;98.00
2935;DHT22;2462;51.456;7.248;2023-04-29T01:29:34;17.90;98.00
2935;DHT22;2462;51.456;7.248;2023-04-29T01:32:05;17.90;98.10
2935;DHT22;2462;51.456;7.248;2023-04-29T01:34:56;17.90;98.10
2935;DHT22;2462;51.456;7.248;2023-04-29T01:40:37;17.90;98.20
2935;DHT22;2462;51.456;7.248;2023-04-29T01:43:07;17.80;98.40
2935;DHT22;2462;51.456;7.248;2023-04-29T01:45:37;17.80;98.10
2935;DHT22;2462;51.456;7.248;2023-04-29T01:48:06;17.80;98.10
2935;DHT22;2462;51.456;7.248;2023-04-29T01:50:32;17.80;98.10
2935;DHT22;2462;51.456;7.248;2023-04-29T01:52:57;17.80;98.10
2935;DHT22;2462;51.456;7.248;2023-04-29T01:55:23;17.80;98.20
2935;DHT22;2462;51.456;7.248;2023-04-29T01:57:48;17.80;98.20
2935;DHT22;2462;51.456;7.248;2023-04-29T02:00:14;17.80;98.30
2935;DHT22;2462;51.456;7.248;2023-04-29T02:02:40;17.70;98.20
2935;DHT22;2462;51.456;7.248;2023-04-29T02:05:06;17.70;98.30
2935;DHT22;2462;51.456;7.248;2023-04-29T02:07:31;17.70;98.30
2935;DHT22;2462;51.456;7.248;2023-04-29T02:09:57;17.70;98.30
2935;DHT22;2462;51.456;7.248;2023-04-29T02:12:22;17.70;98.30
2935;DHT22;2462;51.456;7.248;2023-04-29T02:14:51;17.70;98.20
2935;DHT22;2462;51.456;7.248;2023-04-29T02:17:17;17.70;98.20
2935;DHT22;2462;51.456;7.248;2023-04-29T02:19:43;17.70;98.30
2935;DHT22;2462;51.456;7.248;2023-04-29T02:22:08;17.70;98.30
2935;DHT22;2462;51.456;7.248;2023-04-29T02:24:37;17.60;98.20
2935;DHT22;2462;51.456;7.248;2023-04-29T02:27:02;17.60;98.10
2935;DHT22;2462;51.456;7.248;2023-04-29T02:29:30;17.60;98.20
2935;DHT22;2462;51.456;7.248;2023-04-29T02:31:56;17.60;98.30
2935;DHT22;2462;51.456;7.248;2023-04-29T02:34:22;17.60;98.30
2935;DHT22;2462;51.456;7.248;2023-04-29T02:36:48;17.60;98.20
2935;DHT22;2462;51.456;7.248;2023-04-29T02:39:14;17.60;98.30
2935;DHT22;2462;51.456;7.248;2023-04-29T02:41:40;17.50;98.30
2935;DHT22;2462;51.456;7.248;2023-04-29T02:44:06;17.50;98.30
2935;DHT22;2462;51.456;7.248;2023-04-29T02:46:32;17.50;98.40
2935;DHT22;2462;51.456;7.248;2023-04-29T02:48:59;17.50;98.40
2935;DHT22;2462;51.456;7.248;2023-04-29T02:51:26;17.50;98.40
2935;DHT22;2462;51.456;7.248;2023-04-29T02:53:52;17.50;98.40
2935;DHT22;2462;51.456;7.248;2023-04-29T02:56:17;17.50;98.40
2935;DHT22;2462;51.456;7.248;2023-04-29T02:58:43;17.50;98.30
2935;DHT22;2462;51.456;7.248;2023-04-29T03:01:09;17.50;98.40
2935;DHT22;2462;51.456;7.248;2023-04-29T03:03:35;17.40;98.30
2935;DHT22;2462;51.456;7.248;2023-04-29T03:06:00;17.40;98.40
2935;DHT22;2462;51.456;7.248;2023-04-29T03:08:26;17.40;98.40
2935;DHT22;2462;51.456;7.248;2023-04-29T03:10:52;17.40;98.50
2935;DHT22;2462;51.456;7.248;2023-04-29T03:13:18;17.40;98.50
2935;DHT22;2462;51.456;7.248;2023-04-29T03:15:43;17.30;98.50
2935;DHT22;2462;51.456;7.248;2023-04-29T03:18:09;17.40;98.50
2935;DHT22;2462;51.456;7.248;2023-04-29T03:20:35;17.30;98.40
2935;DHT22;2462;51.456;7.248;2023-04-29T03:23:00;17.40;98.50
2935;DHT22;2462;51.456;7.248;2023-04-29T03:25:26;17.30;98.50
2935;DHT22;2462;51.456;7.248;2023-04-29T03:27:53;17.30;98.50
2935;DHT22;2462;51.456;7.248;2023-04-29T03:30:18;17.30;98.50
2935;DHT22;2462;51.456;7.248;2023-04-29T03:32:44;17.30;98.50
2935;DHT22;2462;51.456;7.248;2023-04-29T03:35:09;17.30;98.60
2935;DHT22;2462;51.456;7.248;2023-04-29T03:37:36;17.30;98.50
2935;DHT22;2462;51.456;7.248;2023-04-29T03:40:01;17.30;98.50
2935;DHT22;2462;51.456;7.248;2023-04-29T03:42:28;17.20;98.50
2935;DHT22;2462;51.456;7.248;2023-04-29T03:44:53;17.20;98.50
2935;DHT22;2462;51.456;7.248;2023-04-29T03:47:19;17.20;98.60
2935;DHT22;2462;51.456;7.248;2023-04-29T03:49:44;17.20;98.60
2935;DHT22;2462;51.456;7.248;2023-04-29T03:52:10;17.20;98.70
2935;DHT22;2462;51.456;7.248;2023-04-29T03:54:36;17.20;98.60
2935;DHT22;2462;51.456;7.248;2023-04-29T03:57:02;17.20;98.60
2935;DHT22;2462;51.456;7.248;2023-04-29T03:59:29;17.20;98.60
2935;DHT22;2462;51.456;7.248;2023-04-29T04:01:54;17.20;98.70
2935;DHT22;2462;51.456;7.248;2023-04-29T04:04:20;17.10;98.60
2935;DHT22;2462;51.456;7.248;2023-04-29T04:06:46;17.10;98.60
2935;DHT22;2462;51.456;7.248;2023-04-29T04:09:16;17.10;98.60
2935;DHT22;2462;51.456;7.248;2023-04-29T04:11:42;17.10;98.60
2935;DHT22;2462;51.456;7.248;2023-04-29T04:14:08;17.10;98.70
2935;DHT22;2462;51.456;7.248;2023-04-29T04:16:33;17.10;98.60
2935;DHT22;2462;51.456;7.248;2023-04-29T04:18:59;17.10;98.60
2935;DHT22;2462;51.456;7.248;2023-04-29T04:21:24;17.10;98.70
2935;DHT22;2462;51.456;7.248;2023-04-29T04:23:51;17.10;98.60
2935;DHT22;2462;51.456;7.248;2023-04-29T04:26:17;17.10;98.70
2935;DHT22;2462;51.456;7.248;2023-04-29T04:28:42;17.10;98.70
2935;DHT22;2462;51.456;7.248;2023-04-29T04:31:08;17.00;98.60
2935;DHT22;2462;51.456;7.248;2023-04-29T04:33:33;17.00;98.70
2935;DHT22;2462;51.456;7.248;2023-04-29T04:36:03;17.00;98.70
2935;DHT22;2462;51.456;7.248;2023-04-29T04:38:29;17.00;98.70
2935;DHT22;2462;51.456;7.248;2023-04-29T04:40:54;17.00;98.80
2935;DHT22;2462;51.456;7.248;2023-04-29T04:43:20;17.00;98.70
2935;DHT22;2462;51.456;7.248;2023-04-29T04:45:45;17.00;98.70
2935;DHT22;2462;51.456;7.248;2023-04-29T04:48:11;17.00;98.80
2935;DHT22;2462;51.456;7.248;2023-04-29T04:50:37;17.00;98.80
2935;DHT22;2462;51.456;7.248;2023-04-29T04:53:02;17.00;98.90
2935;DHT22;2462;51.456;7.248;2023-04-29T04:55:28;17.00;98.80
2935;DHT22;2462;51.456;7.248;2023-04-29T04:57:53;17.00;98.80
2935;DHT22;2462;51.456;7.248;2023-04-29T05:00:19;17.00;98.80
2935;DHT22;2462;51.456;7.248;2023-04-29T05:02:45;17.00;98.90
2935;DHT22;2462;51.456;7.248;2023-04-29T05:05:10;17.00;98.90
2935;DHT22;2462;51.456;7.248;2023-04-29T05:07:36;17.00;98.80
2935;DHT22;2462;51.456;7.248;2023-04-29T05:10:02;17.00;98.80
2935;DHT22;2462;51.456;7.248;2023-04-29T05:12:28;17.00;98.80
2935;DHT22;2462;51.456;7.248;2023-04-29T05:14:55;17.00;98.80
2935;DHT22;2462;51.456;7.248;2023-04-29T05:17:21;17.00;98.80
2935;DHT22;2462;51.456;7.248;2023-04-29T05:19:47;17.00;98.80
2935;DHT22;2462;51.456;7.248;2023-04-29T05:22:12;17.00;98.90
2935;DHT22;2462;51.456;7.248;2023-04-29T05:24:38;17.00;98.90
2935;DHT22;2462;51.456;7.248;2023-04-29T05:27:03;17.00;98.80
2935;DHT22;2462;51.456;7.248;2023-04-29T05:29:29;17.00;98.80
2935;DHT22;2462;51.456;7.248;2023-04-29T05:31:55;17.00;98.80
2935;DHT22;2462;51.456;7.248;2023-04-29T05:34:21;17.00;98.70
2935;DHT22;2462;51.456;7.248;2023-04-29T05:36:46;17.00;98.70
2935;DHT22;2462;51.456;7.248;2023-04-29T05:39:12;17.10;98.70
2935;DHT22;2462;51.456;7.248;2023-04-29T05:41:37;17.10;98.80
2935;DHT22;2462;51.456;7.248;2023-04-29T05:44:03;17.10;98.80
2935;DHT22;2462;51.456;7.248;2023-04-29T05:46:28;17.10;99.10
2935;DHT22;2462;51.456;7.248;2023-04-29T05:48:54;17.10;98.80
2935;DHT22;2462;51.456;7.248;2023-04-29T05:51:19;17.10;99.30
2935;DHT22;2462;51.456;7.248;2023-04-29T05:53:45;17.20;99.50
2935;DHT22;2462;51.456;7.248;2023-04-29T05:56:10;17.20;99.80
2935;DHT22;2462;51.456;7.248;2023-04-29T05:58:36;17.20;99.70
2935;DHT22;2462;51.456;7.248;2023-04-29T06:01:01;17.30;99.70
2935;DHT22;2462;51.456;7.248;2023-04-29T06:03:27;17.30;99.50
2935;DHT22;2462;51.456;7.248;2023-04-29T06:05:53;17.30;99.50
2935;DHT22;2462;51.456;7.248;2023-04-29T06:08:19;17.30;99.70
2935;DHT22;2462;51.456;7.248;2023-04-29T06:10:45;17.40;99.90
2935;DHT22;2462;51.456;7.248;2023-04-29T06:13:11;17.30;99.70
2935;DHT22;2462;51.456;7.248;2023-04-29T06:15:37;17.30;99.90
2935;DHT22;2462;51.456;7.248;2023-04-29T06:18:02;17.40;99.80
2935;DHT22;2462;51.456;7.248;2023-04-29T06:20:28;17.40;99.70
2935;DHT22;2462;51.456;7.248;2023-04-29T06:22:53;17.60;99.90
2935;DHT22;2462;51.456;7.248;2023-04-29T06:25:19;17.90;99.90
2935;DHT22;2462;51.456;7.248;2023-04-29T06:27:44;18.20;99.50
2935;DHT22;2462;51.456;7.248;2023-04-29T06:30:10;18.40;99.20
2935;DHT22;2462;51.456;7.248;2023-04-29T06:32:40;18.60;98.90
2935;DHT22;2462;51.456;7.248;2023-04-29T06:35:06;18.90;98.60
2935;DHT22;2462;51.456;7.248;2023-04-29T06:37:32;19.10;98.40
2935;DHT22;2462;51.456;7.248;2023-04-29T06:39:57;19.30;98.20
2935;DHT22;2462;51.456;7.248;2023-04-29T06:42:23;19.40;97.80
2935;DHT22;2462;51.456;7.248;2023-04-29T06:44:48;19.60;97.70
2935;DHT22;2462;51.456;7.248;2023-04-29T06:47:14;19.70;97.50
2935;DHT22;2462;51.456;7.248;2023-04-29T06:49:39;19.70;97.50
2935;DHT22;2462;51.456;7.248;2023-04-29T06:52:08;19.80;97.40
2935;DHT22;2462;51.456;7.248;2023-04-29T06:54:33;20.00;97.10
2935;DHT22;2462;51.456;7.248;2023-04-29T06:56:59;20.10;97.00
2935;DHT22;2462;51.456;7.248;2023-04-29T06:59:24;20.20;96.90
2935;DHT22;2462;51.456;7.248;2023-04-29T07:01:50;20.30;94.70
2935;DHT22;2462;51.456;7.248;2023-04-29T07:04:16;20.30;93.80
2935;DHT22;2462;51.456;7.248;2023-04-29T07:06:42;20.40;95.80
2935;DHT22;2462;51.456;7.248;2023-04-29T07:09:14;20.50;96.10
2935;DHT22;2462;51.456;7.248;2023-04-29T07:11:40;20.90;96.10
2935;DHT22;2462;51.456;7.248;2023-04-29T07:14:06;21.10;96.20
2935;DHT22;2462;51.456;7.248;2023-04-29T07:16:32;21.40;95.80
2935;DHT22;2462;51.456;7.248;2023-04-29T07:18:58;21.70;95.70
2935;DHT22;2462;51.456;7.248;2023-04-29T07:21:23;21.90;95.50
2935;DHT22;2462;51.456;7.248;2023-04-29T07:23:49;22.20;95.30
2935;DHT22;2462;51.456;7.248;2023-04-29T07:26:16;22.40;95.10
2935;DHT22;2462;51.456;7.248;2023-04-29T07:28:42;22.40;95.20
2935;DHT22;2462;51.456;7.248;2023-04-29T07:31:08;22.30;95.30
2935;DHT22;2462;51.456;7.248;2023-04-29T07:33:34;22.10;95.40
2935;DHT22;2462;51.456;7.248;2023-04-29T07:36:00;21.90;95.70
2935;DHT22;2462;51.456;7.248;2023-04-29T07:38:26;21.70;95.80
2935;DHT22;2462;51.456;7.248;2023-04-29T07:40:52;21.70;96.00
2935;DHT22;2462;51.456;7.248;2023-04-29T07:43:17;21.60;96.30
2935;DHT22;2462;51.456;7.248;2023-04-29T07:45:43;21.50;96.20
2935;DHT22;2462;51.456;7.248;2023-04-29T07:48:09;21.50;96.50
2935;DHT22;2462;51.456;7.248;2023-04-29T07:50:34;21.50;96.40
2935;DHT22;2462;51.456;7.248;2023-04-29T07:53:03;21.50;96.50
2935;DHT22;2462;51.456;7.248;2023-04-29T07:55:29;21.40;96.70
2935;DHT22;2462;51.456;7.248;2023-04-29T07:57:55;21.40;96.70
2935;DHT22;2462;51.456;7.248;2023-04-29T08:00:21;21.40;96.60
2935;DHT22;2462;51.456;7.248;2023-04-29T08:02:54;21.40;96.80
2935;DHT22;2462;51.456;7.248;2023-04-29T08:05:20;21.30;96.80
2935;DHT22;2462;51.456;7.248;2023-04-29T08:07:49;21.30;96.70
2935;DHT22;2462;51.456;7.248;2023-04-29T08:10:15;21.30;96.90
2935;DHT22;2462;51.456;7.248;2023-04-29T08:12:44;21.20;96.80
2935;DHT22;2462;51.456;7.248;2023-04-29T08:15:10;21.20;97.00
2935;DHT22;2462;51.456;7.248;2023-04-29T08:17:36;21.20;97.00
2935;DHT22;2462;51.456;7.248;2023-04-29T08:20:01;21.20;97.30
2935;DHT22;2462;51.456;7.248;2023-04-29T08:22:27;21.20;96.90
2935;DHT22;2462;51.456;7.248;2023-04-29T08:24:53;21.10;97.00
2935;DHT22;2462;51.456;7.248;2023-04-29T08:27:18;21.10;97.50
2935;DHT22;2462;51.456;7.248;2023-04-29T08:29:45;21.00;98.00
2935;DHT22;2462;51.456;7.248;2023-04-29T08:32:11;21.00;98.20
2935;DHT22;2462;51.456;7.248;2023-04-29T08:34:37;21.00;98.30
2935;DHT22;2462;51.456;7.248;2023-04-29T08:37:02;21.00;98.10
2935;DHT22;2462;51.456;7.248;2023-04-29T08:39:28;20.90;98.60
2935;DHT22;2462;51.456;7.248;2023-04-29T08:41:57;20.90;98.50
2935;DHT22;2462;51.456;7.248;2023-04-29T08:44:25;20.90;98.60
2935;DHT22;2462;51.456;7.248;2023-04-29T08:46:52;20.90;98.80
2935;DHT22;2462;51.456;7.248;2023-04-29T08:49:17;20.90;99.10
2935;DHT22;2462;51.456;7.248;2023-04-29T08:51:43;20.90;99.30
2935;DHT22;2462;51.456;7.248;2023-04-29T08:54:10;20.90;99.90
2935;DHT22;2462;51.456;7.248;2023-04-29T08:56:36;20.90;99.70
2935;DHT22;2462;51.456;7.248;2023-04-29T08:59:03;21.00;99.90
2935;DHT22;2462;51.456;7.248;2023-04-29T09:01:31;21.00;99.90
2935;DHT22;2462;51.456;7.248;2023-04-29T09:06:34;21.10;99.90
2935;DHT22;2462;51.456;7.248;2023-04-29T09:09:01;21.10;99.90
2935;DHT22;2462;51.456;7.248;2023-04-29T09:11:27;21.20;99.90
2935;DHT22;2462;51.456;7.248;2023-04-29T09:14:00;21.20;99.90
2935;DHT22;2462;51.456;7.248;2023-04-29T09:16:27;21.20;99.90
2935;DHT22;2462;51.456;7.248;2023-04-29T09:18:53;21.20;99.90
2935;DHT22;2462;51.456;7.248;2023-04-29T09:21:25;21.20;99.90
2935;DHT22;2462;51.456;7.248;2023-04-29T09:24:01;21.20;99.90
2935;DHT22;2462;51.456;7.248;2023-04-29T09:26:40;21.20;99.90
2935;DHT22;2462;51.456;7.248;2023-04-29T09:29:07;21.20;99.90
2935;DHT22;2462;51.456;7.248;2023-04-29T09:31:34;21.20;99.90
2935;DHT22;2462;51.456;7.248;2023-04-29T09:34:00;21.20;99.90
2935;DHT22;2462;51.456;7.248;2023-04-29T09:39:07;21.30;99.90
2935;DHT22;2462;51.456;7.248;2023-04-29T09:41:40;21.30;99.90
2935;DHT22;2462;51.456;7.248;2023-04-29T09:44:07;21.30;99.90
2935;DHT22;2462;51.456;7.248;2023-04-29T09:46:33;21.30;99.90
2935;DHT22;2462;51.456;7.248;2023-04-29T09:49:20;21.40;99.90
2935;DHT22;2462;51.456;7.248;2023-04-29T09:51:56;21.30;99.90
2935;DHT22;2462;51.456;7.248;2023-04-29T09:54:24;21.30;99.90
2935;DHT22;2462;51.456;7.248;2023-04-29T09:56:51;21.20;99.90
2935;DHT22;2462;51.456;7.248;2023-04-29T09:59:18;21.20;99.90
2935;DHT22;2462;51.456;7.248;2023-04-29T10:01:47;21.10;99.90
2935;DHT22;2462;51.456;7.248;2023-04-29T10:04:15;21.30;99.90
2935;DHT22;2462;51.456;7.248;2023-04-29T10:06:43;21.50;99.90
2935;DHT22;2462;51.456;7.248;2023-04-29T10:09:12;21.60;99.90
2935;DHT22;2462;51.456;7.248;2023-04-29T10:11:40;21.60;99.90
2935;DHT22;2462;51.456;7.248;2023-04-29T10:14:07;21.50;98.60
2935;DHT22;2462;51.456;7.248;2023-04-29T10:16:41;21.40;99.10
2935;DHT22;2462;51.456;7.248;2023-04-29T10:19:11;21.50;99.90
2935;DHT22;2462;51.456;7.248;2023-04-29T10:21:37;21.60;99.90
2935;DHT22;2462;51.456;7.248;2023-04-29T10:24:02;21.70;99.90
2935;DHT22;2462;51.456;7.248;2023-04-29T10:26:29;21.80;99.90
2935;DHT22;2462;51.456;7.248;2023-04-29T10:28:57;21.90;99.90
2935;DHT22;2462;51.456;7.248;2023-04-29T10:31:27;22.00;99.90
2935;DHT22;2462;51.456;7.248;2023-04-29T10:33:56;22.10;99.90
2935;DHT22;2462;51.456;7.248;2023-04-29T10:36:24;22.10;99.90
2935;DHT22;2462;51.456;7.248;2023-04-29T10:38:52;22.20;99.90
2935;DHT22;2462;51.456;7.248;2023-04-29T10:41:21;22.30;99.90
2935;DHT22;2462;51.456;7.248;2023-04-29T10:43:54;22.40;99.90
2935;DHT22;2462;51.456;7.248;2023-04-29T10:46:24;22.50;99.90
2935;DHT22;2462;51.456;7.248;2023-04-29T10:49:02;22.60;99.90
2935;DHT22;2462;51.456;7.248;2023-04-29T10:51:34;22.60;99.90
2935;DHT22;2462;51.456;7.248;2023-04-29T10:54:16;22.70;99.90
2935;DHT22;2462;51.456;7.248;2023-04-29T10:56:52;22.70;99.90
2935;DHT22;2462;51.456;7.248;2023-04-29T11:02:07;22.90;99.90
2935;DHT22;2462;51.456;7.248;2023-04-29T11:04:34;23.00;99.90
2935;DHT22;2462;51.456;7.248;2023-04-29T11:06:59;23.10;99.90
2935;DHT22;2462;51.456;7.248;2023-04-29T11:09:29;23.10;99.90
2935;DHT22;2462;51.456;7.248;2023-04-29T11:12:02;23.20;99.90
2935;DHT22;2462;51.456;7.248;2023-04-29T11:14:45;23.20;99.90
2935;DHT22;2462;51.456;7.248;2023-04-29T11:17:15;23.30;99.90
2935;DHT22;2462;51.456;7.248;2023-04-29T11:19:53;23.30;99.90
2935;DHT22;2462;51.456;7.248;2023-04-29T11:22:26;23.40;99.90
2935;DHT22;2462;51.456;7.248;2023-04-29T11:25:07;23.40;99.90
2935;DHT22;2462;51.456;7.248;2023-04-29T11:27:40;23.40;99.90
2935;DHT22;2462;51.456;7.248;2023-04-29T11:30:07;23.40;99.90
2935;DHT22;2462;51.456;7.248;2023-04-29T11:32:37;23.30;99.90
2935;DHT22;2462;51.456;7.248;2023-04-29T11:37:34;23.40;99.90
2935;DHT22;2462;51.456;7.248;2023-04-29T11:39:59;23.40;99.90
2935;DHT22;2462;51.456;7.248;2023-04-29T11:42:26;23.40;99.90
2935;DHT22;2462;51.456;7.248;2023-04-29T11:44:55;23.50;99.90
2935;DHT22;2462;51.456;7.248;2023-04-29T11:47:26;23.50;99.80
2935;DHT22;2462;51.456;7.248;2023-04-29T11:49:52;23.50;99.90
2935;DHT22;2462;51.456;7.248;2023-04-29T11:52:19;23.60;99.60
2935;DHT22;2462;51.456;7.248;2023-04-29T11:54:46;23.50;99.60
2935;DHT22;2462;51.456;7.248;2023-04-29T11:57:12;23.60;99.40
2935;DHT22;2462;51.456;7.248;2023-04-29T11:59:37;23.60;99.30
2935;DHT22;2462;51.456;7.248;2023-04-29T12:02:03;23.50;95.40
2935;DHT22;2462;51.456;7.248;2023-04-29T12:04:28;23.30;90.90
2935;DHT22;2462;51.456;7.248;2023-04-29T12:06:56;23.00;90.60
2935;DHT22;2462;51.456;7.248;2023-04-29T12:09:23;22.80;91.70
2935;DHT22;2462;51.456;7.248;2023-04-29T12:11:49;22.70;93.30
2935;DHT22;2462;51.456;7.248;2023-04-29T12:14:15;22.70;93.00
2935;DHT22;2462;51.456;7.248;2023-04-29T12:16:41;22.60;94.00
2935;DHT22;2462;51.456;7.248;2023-04-29T12:19:07;22.70;93.90
2935;DHT22;2462;51.456;7.248;2023-04-29T12:21:34;22.60;93.40
2935;DHT22;2462;51.456;7.248;2023-04-29T12:24:01;22.70;94.20
2935;DHT22;2462;51.456;7.248;2023-04-29T12:26:29;22.80;94.70
2935;DHT22;2462;51.456;7.248;2023-04-29T12:28:56;22.90;95.00
2935;DHT22;2462;51.456;7.248;2023-04-29T12:31:22;23.00;95.10
2935;DHT22;2462;51.456;7.248;2023-04-29T12:33:48;23.10;95.00
2935;DHT22;2462;51.456;7.248;2023-04-29T12:36:18;23.10;95.20
2935;DHT22;2462;51.456;7.248;2023-04-29T12:38:45;23.10;93.00
2935;DHT22;2462;51.456;7.248;2023-04-29T12:41:12;23.00;91.00
2935;DHT22;2462;51.456;7.248;2023-04-29T12:43:41;22.80;91.30
2935;DHT22;2462;51.456;7.248;2023-04-29T12:46:08;22.80;92.20
2935;DHT22;2462;51.456;7.248;2023-04-29T12:48:35;22.80;93.20
2935;DHT22;2462;51.456;7.248;2023-04-29T12:51:03;22.80;93.80
2935;DHT22;2462;51.456;7.248;2023-04-29T12:53:29;22.80;94.00
2935;DHT22;2462;51.456;7.248;2023-04-29T12:55:56;22.80;94.40
2935;DHT22;2462;51.456;7.248;2023-04-29T12:58:21;22.80;94.20
2935;DHT22;2462;51.456;7.248;2023-04-29T13:00:47;22.80;94.50
2935;DHT22;2462;51.456;7.248;2023-04-29T13:03:13;22.80;94.40
2935;DHT22;2462;51.456;7.248;2023-04-29T13:05:39;22.80;94.50
2935;DHT22;2462;51.456;7.248;2023-04-29T13:08:05;22.80;94.70
2935;DHT22;2462;51.456;7.248;2023-04-29T13:10:31;22.80;94.90
2935;DHT22;2462;51.456;7.248;2023-04-29T13:12:57;22.80;94.80
2935;DHT22;2462;51.456;7.248;2023-04-29T13:15:23;22.80;94.80
2935;DHT22;2462;51.456;7.248;2023-04-29T13:17:49;22.80;94.90
2935;DHT22;2462;51.456;7.248;2023-04-29T13:20:14;22.90;95.00
2935;DHT22;2462;51.456;7.248;2023-04-29T13:22:40;22.90;95.00
2935;DHT22;2462;51.456;7.248;2023-04-29T13:25:08;23.00;95.10
2935;DHT22;2462;51.456;7.248;2023-04-29T13:27:34;23.00;95.00
2935;DHT22;2462;51.456;7.248;2023-04-29T13:30:00;23.00;95.10
2935;DHT22;2462;51.456;7.248;2023-04-29T13:32:25;23.00;95.20
2935;DHT22;2462;51.456;7.248;2023-04-29T13:34:51;23.10;95.10
2935;DHT22;2462;51.456;7.248;2023-04-29T13:37:17;23.10;95.20
2935;DHT22;2462;51.456;7.248;2023-04-29T13:39:44;23.00;95.30
2935;DHT22;2462;51.456;7.248;2023-04-29T13:42:09;23.00;95.50
2935;DHT22;2462;51.456;7.248;2023-04-29T13:44:35;23.00;95.50
2935;DHT22;2462;51.456;7.248;2023-04-29T13:47:01;22.90;95.80
2935;DHT22;2462;51.456;7.248;2023-04-29T13:49:27;22.80;95.70
2935;DHT22;2462;51.456;7.248;2023-04-29T13:51:53;22.80;95.90
2935;DHT22;2462;51.456;7.248;2023-04-29T13:54:18;22.70;95.90
2935;DHT22;2462;51.456;7.248;2023-04-29T13:56:46;22.70;96.00
2935;DHT22;2462;51.456;7.248;2023-04-29T13:59:12;22.60;96.10
2935;DHT22;2462;51.456;7.248;2023-04-29T14:01:37;22.50;96.30
2935;DHT22;2462;51.456;7.248;2023-04-29T14:04:03;22.40;96.40
2935;DHT22;2462;51.456;7.248;2023-04-29T14:06:29;22.40;96.40
2935;DHT22;2462;51.456;7.248;2023-04-29T14:08:56;22.40;96.40
2935;DHT22;2462;51.456;7.248;2023-04-29T14:11:22;22.30;96.40
2935;DHT22;2462;51.456;7.248;2023-04-29T14:13:48;22.30;96.50
2935;DHT22;2462;51.456;7.248;2023-04-29T14:16:13;22.30;96.60
2935;DHT22;2462;51.456;7.248;2023-04-29T14:18:39;22.30;96.60
2935;DHT22;2462;51.456;7.248;2023-04-29T14:21:05;22.30;96.60
2935;DHT22;2462;51.456;7.248;2023-04-29T14:23:30;22.40;96.70
2935;DHT22;2462;51.456;7.248;2023-04-29T14:25:56;22.40;96.70
2935;DHT22;2462;51.456;7.248;2023-04-29T14:28:22;22.40;96.80
2935;DHT22;2462;51.456;7.248;2023-04-29T14:30:47;22.40;96.80
2935;DHT22;2462;51.456;7.248;2023-04-29T14:33:13;22.50;96.70
2935;DHT22;2462;51.456;7.248;2023-04-29T14:35:38;22.50;96.70
2935;DHT22;2462;51.456;7.248;2023-04-29T14:38:04;22.60;96.70
2935;DHT22;2462;51.456;7.248;2023-04-29T14:40:29;22.60;96.70
2935;DHT22;2462;51.456;7.248;2023-04-29T14:42:55;22.70;96.70
2935;DHT22;2462;51.456;7.248;2023-04-29T14:45:21;22.70;96.80
2935;DHT22;2462;51.456;7.248;2023-04-29T14:47:46;22.70;96.70
2935;DHT22;2462;51.456;7.248;2023-04-29T14:50:12;22.70;96.70
2935;DHT22;2462;51.456;7.248;2023-04-29T14:52:37;22.70;96.80
2935;DHT22;2462;51.456;7.248;2023-04-29T14:55:03;22.70;96.90
2935;DHT22;2462;51.456;7.248;2023-04-29T14:57:29;22.70;97.00
2935;DHT22;2462;51.456;7.248;2023-04-29T14:59:55;22.70;96.90
2935;DHT22;2462;51.456;7.248;2023-04-29T15:02:21;22.70;97.00
2935;DHT22;2462;51.456;7.248;2023-04-29T15:04:46;22.70;96.80
2935;DHT22;2462;51.456;7.248;2023-04-29T15:07:13;22.70;96.80
2935;DHT22;2462;51.456;7.248;2023-04-29T15:09:40;22.80;96.80
2935;DHT22;2462;51.456;7.248;2023-04-29T15:12:05;22.80;97.00
2935;DHT22;2462;51.456;7.248;2023-04-29T15:14:31;22.80;97.00
2935;DHT22;2462;51.456;7.248;2023-04-29T15:16:57;22.80;96.90
2935;DHT22;2462;51.456;7.248;2023-04-29T15:19:23;22.80;96.80
2935;DHT22;2462;51.456;7.248;2023-04-29T15:21:51;22.80;96.90
2935;DHT22;2462;51.456;7.248;2023-04-29T15:24:17;22.80;96.90
2935;DHT22;2462;51.456;7.248;2023-04-29T15:26:43;22.80;97.20
2935;DHT22;2462;51.456;7.248;2023-04-29T15:29:09;22.70;97.00
2935;DHT22;2462;51.456;7.248;2023-04-29T15:31:36;22.80;97.10
2935;DHT22;2462;51.456;7.248;2023-04-29T15:34:01;22.80;97.10
2935;DHT22;2462;51.456;7.248;2023-04-29T15:36:28;22.70;97.20
2935;DHT22;2462;51.456;7.248;2023-04-29T15:38:54;22.80;97.40
2935;DHT22;2462;51.456;7.248;2023-04-29T15:41:20;22.70;97.50
2935;DHT22;2462;51.456;7.248;2023-04-29T15:43:46;22.70;97.40
2935;DHT22;2462;51.456;7.248;2023-04-29T15:46:11;22.70;97.50
2935;DHT22;2462;51.456;7.248;2023-04-29T15:48:37;22.60;97.30
2935;DHT22;2462;51.456;7.248;2023-04-29T15:51:02;22.60;97.40
2935;DHT22;2462;51.456;7.248;2023-04-29T15:53:28;22.60;97.40
2935;DHT22;2462;51.456;7.248;2023-04-29T15:55:54;22.60;97.60
2935;DHT22;2462;51.456;7.248;2023-04-29T15:58:19;22.60;97.60
2935;DHT22;2462;51.456;7.248;2023-04-29T16:00:45;22.50;97.60
2935;DHT22;2462;51.456;7.248;2023-04-29T16:03:11;22.40;97.40
2935;DHT22;2462;51.456;7.248;2023-04-29T16:05:36;22.40;97.50
2935;DHT22;2462;51.456;7.248;2023-04-29T16:08:03;22.40;97.20
2935;DHT22;2462;51.456;7.248;2023-04-29T16:10:29;22.30;96.60
2935;DHT22;2462;51.456;7.248;2023-04-29T16:12:54;22.30;97.10
2935;DHT22;2462;51.456;7.248;2023-04-29T16:15:20;22.30;97.30
2935;DHT22;2462;51.456;7.248;2023-04-29T16:17:45;22.20;97.40
2935;DHT22;2462;51.456;7.248;2023-04-29T16:20:11;22.10;92.50